Time;durP1;ratioP1;P1;durP2;ratioP2;P2;SDS_P1;SDS_P2;PMS_P1;PMS_P2;Temp;Humidity;BMP_temperature;BMP_pressure;BME280_temperature;BME280_humidity;BME280_pressure;Samples;Min_cycle;Max_cycle;Signal;HPM_P1;HPM_P2
2022/05/02 00:01:01;;;;;;;10.20;8.47;;;;;;;;;;5033012;28;20229;-67
2022/05/02 00:03:27;;;;;;;14.20;9.03;;;;;;;;;;5015000;28;20222;-66
2022/05/02 00:05:55;;;;;;;10.33;8.60;;;;;;;;;;5033812;28;20506;-66
2022/05/02 00:08:21;;;;;;;10.20;8.60;;;;;;;;;;5036434;28;20639;-66
2022/05/02 00:10:47;;;;;;;11.60;9.00;;;;;;;;;;5036328;28;20685;-67
2022/05/02 00:13:13;;;;;;;11.33;8.63;;;;;;;;;;5036390;28;20558;-68
2022/05/02 00:15:38;;;;;;;11.97;8.97;;;;;;;;;;5036293;28;20252;-66
2022/05/02 00:18:05;;;;;;;11.70;9.00;;;;;;;;;;5036825;28;20610;-66
2022/05/02 00:20:33;;;;;;;11.70;9.00;;;;;;;;;;5036364;28;20179;-66
2022/05/02 00:23:01;;;;;;;11.10;9.40;;;;;;;;;;5036307;28;20244;-66
2022/05/02 00:25:27;;;;;;;12.80;9.50;;;;;;;;;;5036726;28;20182;-66
2022/05/02 00:27:53;;;;;;;13.83;8.90;;;;;;;;;;5036566;28;20226;-66
2022/05/02 00:30:20;;;;;;;12.63;9.43;;;;;;;;;;5036037;28;20175;-66
2022/05/02 00:32:46;;;;;;;10.17;8.87;;;;;;;;;;5035908;28;20198;-66
2022/05/02 00:35:13;;;;;;;11.83;8.90;;;;;;;;;;5018147;28;20179;-67
2022/05/02 00:37:39;;;;;;;11.53;8.93;;;;;;;;;;5018126;28;20225;-66
2022/05/02 00:40:06;;;;;;;13.50;9.30;;;;;;;;;;5036067;28;20285;-66
2022/05/02 00:42:32;;;;;;;9.77;8.70;;;;;;;;;;5017745;28;20281;-67
2022/05/02 00:44:58;;;;;;;11.03;9.20;;;;;;;;;;5035597;28;20666;-67
2022/05/02 00:47:24;;;;;;;11.10;8.87;;;;;;;;;;5017862;28;20237;-66
2022/05/02 00:49:50;;;;;;;13.63;9.37;;;;;;;;;;5035583;28;20171;-66
2022/05/02 00:52:17;;;;;;;11.83;9.53;;;;;;;;;;5035428;28;20222;-66
2022/05/02 00:54:43;;;;;;;10.83;9.27;;;;;;;;;;5036294;28;20207;-67
2022/05/02 00:57:11;;;;;;;15.37;9.60;;;;;;;;;;5035667;28;20229;-67
2022/05/02 00:59:37;;;;;;;10.67;9.00;;;;;;;;;;5017689;28;20179;-65
2022/05/02 01:02:05;;;;;;;10.80;8.87;;;;;;;;;;5017520;28;20260;-67
2022/05/02 01:04:31;;;;;;;13.80;10.37;;;;;;;;;;5035439;28;20190;-67
2022/05/02 01:07:18;;;;;;;12.77;9.77;;;;;;;;;;5035346;28;20176;-66
2022/05/02 01:09:45;;;;;;;13.47;9.50;;;;;;;;;;5035323;28;20171;-67
2022/05/02 01:12:14;;;;;;;14.47;9.63;;;;;;;;;;5035239;28;20786;-67
2022/05/02 01:14:40;;;;;;;10.57;9.13;;;;;;;;;;5035221;28;20586;-67
2022/05/02 01:17:06;;;;;;;11.70;9.30;;;;;;;;;;5017105;28;20187;-66
2022/05/02 01:19:32;;;;;;;12.73;9.43;;;;;;;;;;5035036;28;20249;-66
2022/05/02 01:21:58;;;;;;;13.27;9.33;;;;;;;;;;5035303;28;20279;-67
2022/05/02 01:24:38;;;;;;;11.80;9.50;;;;;;;;;;5017227;28;20630;-66
2022/05/02 01:27:05;;;;;;;10.90;9.07;;;;;;;;;;5035032;28;20654;-67
2022/05/02 01:29:31;;;;;;;10.43;8.63;;;;;;;;;;5017112;28;20286;-67
2022/05/02 01:31:58;;;;;;;13.20;9.40;;;;;;;;;;5035232;28;20286;-67
2022/05/02 01:34:24;;;;;;;14.80;10.40;;;;;;;;;;5035075;28;20179;-67
2022/05/02 01:36:50;;;;;;;10.97;8.63;;;;;;;;;;5035425;28;20517;-67
2022/05/02 01:39:16;;;;;;;10.73;9.23;;;;;;;;;;5035197;28;20266;-67
2022/05/02 01:41:42;;;;;;;10.33;8.67;;;;;;;;;;5035013;28;20293;-67
2022/05/02 01:44:08;;;;;;;10.23;8.47;;;;;;;;;;5035435;28;20217;-66
2022/05/02 01:46:34;;;;;;;10.87;9.03;;;;;;;;;;5017440;28;20236;-67
2022/05/02 01:49:00;;;;;;;11.43;8.50;;;;;;;;;;5017185;28;20211;-67
2022/05/02 01:51:26;;;;;;;11.67;9.43;;;;;;;;;;5017244;28;20179;-67
2022/05/02 01:53:52;;;;;;;11.73;9.37;;;;;;;;;;5017348;28;20183;-67
2022/05/02 01:56:18;;;;;;;11.30;8.27;;;;;;;;;;5035324;28;20202;-66
2022/05/02 01:58:44;;;;;;;11.00;8.60;;;;;;;;;;5035580;28;20187;-67
2022/05/02 02:01:10;;;;;;;12.10;9.20;;;;;;;;;;5035429;28;20182;-67
2022/05/02 02:03:37;;;;;;;11.83;8.40;;;;;;;;;;5017389;28;20225;-66
2022/05/02 02:06:04;;;;;;;11.27;8.80;;;;;;;;;;5017480;28;20678;-67
2022/05/02 02:08:31;;;;;;;13.93;9.07;;;;;;;;;;5035030;28;20194;-67
2022/05/02 02:10:58;;;;;;;10.27;9.00;;;;;;;;;;5035359;28;20635;-66
2022/05/02 02:13:24;;;;;;;10.63;9.03;;;;;;;;;;5017486;28;20223;-67
2022/05/02 02:15:50;;;;;;;13.27;9.20;;;;;;;;;;5017408;28;20171;-65
2022/05/02 02:18:17;;;;;;;12.10;8.67;;;;;;;;;;5034795;28;20175;-66
2022/05/02 02:20:44;;;;;;;12.50;9.23;;;;;;;;;;5034867;28;20179;-67
2022/05/02 02:23:10;;;;;;;13.27;9.27;;;;;;;;;;5035144;28;20594;-66
2022/05/02 02:25:40;;;;;;;12.00;9.43;;;;;;;;;;5034596;28;20230;-66
2022/05/02 02:28:06;;;;;;;11.90;9.50;;;;;;;;;;5016354;28;20202;-67
2022/05/02 02:30:32;;;;;;;11.43;8.40;;;;;;;;;;5034959;28;20225;-66
2022/05/02 02:32:58;;;;;;;11.00;8.50;;;;;;;;;;5034478;28;20206;-67
2022/05/02 02:35:25;;;;;;;11.37;8.33;;;;;;;;;;5034669;28;20604;-67
2022/05/02 02:37:51;;;;;;;11.37;8.20;;;;;;;;;;5034566;28;20183;-67
2022/05/02 02:40:17;;;;;;;10.73;9.17;;;;;;;;;;5016107;28;20644;-67
2022/05/02 02:42:43;;;;;;;11.77;9.27;;;;;;;;;;5033464;28;20223;-65
2022/05/02 02:45:10;;;;;;;11.77;9.13;;;;;;;;;;5033646;28;20227;-67
2022/05/02 02:47:35;;;;;;;12.20;8.83;;;;;;;;;;5016021;28;20192;-67
2022/05/02 02:50:01;;;;;;;10.30;8.93;;;;;;;;;;5033658;28;20193;-68
2022/05/02 02:52:27;;;;;;;12.13;8.60;;;;;;;;;;5015724;28;20203;-66
2022/05/02 02:54:53;;;;;;;10.43;8.57;;;;;;;;;;5033771;28;20199;-67
2022/05/02 02:57:19;;;;;;;13.03;8.70;;;;;;;;;;5033839;28;20179;-68
2022/05/02 02:59:45;;;;;;;10.97;8.80;;;;;;;;;;5033444;28;20179;-66
2022/05/02 03:02:11;;;;;;;9.63;7.83;;;;;;;;;;5015814;28;20205;-66
2022/05/02 03:07:25;;;;;;;9.73;8.30;;;;;;;;;;5033766;28;20186;-66
2022/05/02 03:09:51;;;;;;;10.53;8.00;;;;;;;;;;5034073;28;20628;-65
2022/05/02 03:12:18;;;;;;;12.33;9.20;;;;;;;;;;5033825;28;20201;-67
2022/05/02 03:14:44;;;;;;;12.00;7.97;;;;;;;;;;5034399;28;20702;-66
2022/05/02 03:17:10;;;;;;;11.17;8.27;;;;;;;;;;5034884;28;20635;-67
2022/05/02 03:19:36;;;;;;;10.43;8.00;;;;;;;;;;5034294;28;20186;-68
2022/05/02 03:22:02;;;;;;;11.90;8.30;;;;;;;;;;5033302;28;20628;-66
2022/05/02 03:24:28;;;;;;;11.27;8.43;;;;;;;;;;5033403;28;20223;-67
2022/05/02 03:26:54;;;;;;;9.50;8.27;;;;;;;;;;5033549;28;20179;-67
2022/05/02 03:29:20;;;;;;;9.80;8.43;;;;;;;;;;5015471;28;20210;-67
2022/05/02 03:31:46;;;;;;;12.90;9.23;;;;;;;;;;5033475;28;20197;-67
2022/05/02 03:34:12;;;;;;;11.70;9.13;;;;;;;;;;5015443;28;20179;-67
2022/05/02 03:36:38;;;;;;;10.50;8.80;;;;;;;;;;5033482;28;20182;-67
2022/05/02 03:39:04;;;;;;;12.47;8.97;;;;;;;;;;5033588;28;20183;-67
2022/05/02 03:41:30;;;;;;;13.70;9.70;;;;;;;;;;5037165;28;20206;-67
2022/05/02 03:43:56;;;;;;;12.27;9.10;;;;;;;;;;5019194;28;20548;-68
2022/05/02 03:46:22;;;;;;;11.07;9.43;;;;;;;;;;5037396;28;20248;-67
2022/05/02 03:48:48;;;;;;;12.83;8.87;;;;;;;;;;5037335;28;20207;-67
2022/05/02 03:51:14;;;;;;;11.40;9.40;;;;;;;;;;5036792;28;20266;-67
2022/05/02 03:53:40;;;;;;;11.67;8.87;;;;;;;;;;5036816;28;20176;-67
2022/05/02 03:56:06;;;;;;;11.97;9.80;;;;;;;;;;5037227;28;20181;-67
2022/05/02 03:58:32;;;;;;;12.70;9.43;;;;;;;;;;5035190;22;20853;-66
2022/05/02 04:00:58;;;;;;;12.30;9.30;;;;;;;;;;5037068;28;20254;-65
2022/05/02 04:03:24;;;;;;;13.47;9.60;;;;;;;;;;5036517;28;20221;-66
2022/05/02 04:05:50;;;;;;;12.77;9.17;;;;;;;;;;5018744;28;20187;-66
2022/05/02 04:08:16;;;;;;;12.73;10.17;;;;;;;;;;5036307;28;20227;-66
2022/05/02 04:10:42;;;;;;;15.13;10.57;;;;;;;;;;5036506;28;20278;-66
2022/05/02 04:13:09;;;;;;;14.03;9.77;;;;;;;;;;5036325;28;20179;-66
2022/05/02 04:15:35;;;;;;;13.23;9.23;;;;;;;;;;5018504;28;20531;-66
2022/05/02 04:18:01;;;;;;;14.43;9.77;;;;;;;;;;5018645;28;20214;-66
2022/05/02 04:20:27;;;;;;;11.57;10.03;;;;;;;;;;5036187;28;20189;-66
2022/05/02 04:22:53;;;;;;;12.27;10.27;;;;;;;;;;5036092;28;20179;-66
2022/05/02 04:25:19;;;;;;;12.20;8.97;;;;;;;;;;5036316;28;20175;-66
2022/05/02 04:27:45;;;;;;;11.97;9.50;;;;;;;;;;5018042;28;20687;-66
2022/05/02 04:30:11;;;;;;;14.17;10.27;;;;;;;;;;5018212;28;20185;-66
2022/05/02 04:32:38;;;;;;;14.97;11.27;;;;;;;;;;5036057;28;20266;-66
2022/05/02 04:35:05;;;;;;;13.00;10.60;;;;;;;;;;5018066;28;20258;-66
2022/05/02 04:37:31;;;;;;;12.20;9.90;;;;;;;;;;5017967;28;20716;-66
2022/05/02 04:39:57;;;;;;;14.93;11.53;;;;;;;;;;5017935;28;20199;-66
2022/05/02 04:42:23;;;;;;;12.17;10.03;;;;;;;;;;5017795;28;20181;-66
2022/05/02 04:44:49;;;;;;;12.97;9.93;;;;;;;;;;5035714;28;20221;-66
2022/05/02 04:47:15;;;;;;;13.07;10.00;;;;;;;;;;5017827;28;20651;-66
2022/05/02 04:49:41;;;;;;;11.10;9.50;;;;;;;;;;5035458;28;20281;-66
2022/05/02 04:52:07;;;;;;;12.30;9.60;;;;;;;;;;5016879;28;20245;-66
2022/05/02 04:54:33;;;;;;;14.40;10.40;;;;;;;;;;5035476;28;20211;-66
2022/05/02 04:56:59;;;;;;;12.23;9.77;;;;;;;;;;5036618;28;20182;-66
2022/05/02 04:59:25;;;;;;;12.77;10.60;;;;;;;;;;5037304;28;20257;-66
2022/05/02 05:01:51;;;;;;;13.57;10.83;;;;;;;;;;5020446;28;20183;-66
2022/05/02 05:04:17;;;;;;;13.13;9.83;;;;;;;;;;5038993;28;20258;-66
2022/05/02 05:06:43;;;;;;;17.50;11.43;;;;;;;;;;5021058;28;20182;-66
2022/05/02 05:09:09;;;;;;;13.90;10.97;;;;;;;;;;5037040;28;20207;-66
2022/05/02 05:11:54;;;;;;;14.03;10.20;;;;;;;;;;5036623;28;20182;-65
2022/05/02 05:17:41;;;;;;;13.10;9.70;;;;;;;;;;5035405;28;20285;-66
2022/05/02 05:20:33;;;;;;;13.97;10.57;;;;;;;;;;5035276;28;20246;-66
2022/05/02 05:22:59;;;;;;;14.43;11.60;;;;;;;;;;5018048;28;20160;-66
2022/05/02 05:25:54;;;;;;;14.70;10.87;;;;;;;;;;5017415;28;20674;-66
2022/05/02 05:28:23;;;;;;;13.70;10.97;;;;;;;;;;4964946;28;20346;-66
2022/05/02 05:30:51;;;;;;;14.13;10.37;;;;;;;;;;5017124;28;20558;-65
2022/05/02 05:33:27;;;;;;;12.87;10.17;;;;;;;;;;5035010;28;20179;-65
2022/05/02 05:36:00;;;;;;;12.57;10.03;;;;;;;;;;5017023;28;20170;-66
2022/05/02 05:38:38;;;;;;;12.53;10.30;;;;;;;;;;5016889;28;20543;-64
2022/05/02 05:41:27;;;;;;;12.90;10.07;;;;;;;;;;5016958;28;20182;-64
2022/05/02 05:44:12;;;;;;;16.13;10.47;;;;;;;;;;4981035;28;20191;-66
2022/05/02 05:46:38;;;;;;;12.37;9.97;;;;;;;;;;5016857;28;20223;-64
2022/05/02 05:49:19;;;;;;;14.67;10.70;;;;;;;;;;5034344;28;20721;-64
2022/05/02 05:52:08;;;;;;;12.57;9.90;;;;;;;;;;5016710;28;20174;-66
2022/05/02 05:54:34;;;;;;;12.37;9.77;;;;;;;;;;5006991;28;20183;-65
2022/05/02 05:57:16;;;;;;;11.47;9.27;;;;;;;;;;5016673;28;20266;-66
2022/05/02 05:59:45;;;;;;;12.27;9.47;;;;;;;;;;5016600;28;20219;-65
2022/05/02 06:02:22;;;;;;;11.83;9.50;;;;;;;;;;5016469;28;20663;-64
2022/05/02 06:04:52;;;;;;;12.60;8.83;;;;;;;;;;5016334;28;20193;-65
2022/05/02 06:07:19;;;;;;;17.10;9.37;;;;;;;;;;5016371;28;20176;-64
2022/05/02 06:09:45;;;;;;;10.40;8.47;;;;;;;;;;5016168;28;20218;-65
2022/05/02 06:12:12;;;;;;;12.17;8.87;;;;;;;;;;5016428;28;20229;-64
2022/05/02 06:20:11;;;;;;;11.07;9.27;;;;;;;;;;5034355;28;20194;-65
2022/05/02 06:22:39;;;;;;;10.87;9.20;;;;;;;;;;5034195;28;20175;-65
2022/05/02 06:25:05;;;;;;;15.83;8.97;;;;;;;;;;5016262;28;20216;-65
2022/05/02 06:27:32;;;;;;;12.23;8.83;;;;;;;;;;5015984;28;20225;-65
2022/05/02 06:29:59;;;;;;;13.23;9.87;;;;;;;;;;5033769;28;20324;-65
2022/05/02 06:32:26;;;;;;;11.90;9.40;;;;;;;;;;5033882;28;20207;-65
2022/05/02 06:34:52;;;;;;;10.87;9.33;;;;;;;;;;5033639;28;20179;-65
2022/05/02 06:37:21;;;;;;;15.13;10.17;;;;;;;;;;5033667;28;20171;-66
2022/05/02 06:39:55;;;;;;;12.27;8.90;;;;;;;;;;5033674;28;20203;-66
2022/05/02 06:42:50;;;;;;;13.77;9.87;;;;;;;;;;5034031;28;20182;-66
2022/05/02 06:45:37;;;;;;;13.50;9.50;;;;;;;;;;4964221;28;20344;-66
2022/05/02 06:48:17;;;;;;;12.60;10.03;;;;;;;;;;5015740;28;20242;-65
2022/05/02 06:50:47;;;;;;;13.33;9.37;;;;;;;;;;5033628;28;20174;-66
2022/05/02 06:53:28;;;;;;;11.67;10.10;;;;;;;;;;5015830;28;20237;-65
2022/05/02 06:55:59;;;;;;;11.57;9.70;;;;;;;;;;5015701;28;20175;-65
2022/05/02 06:58:49;;;;;;;12.03;10.17;;;;;;;;;;5015408;28;20226;-66
2022/05/02 07:01:20;;;;;;;11.80;10.00;;;;;;;;;;5033821;28;20156;-65
2022/05/02 07:03:57;;;;;;;13.20;9.83;;;;;;;;;;5033476;28;20182;-65
2022/05/02 07:06:42;;;;;;;16.03;9.57;;;;;;;;;;5033669;28;20174;-65
2022/05/02 07:09:10;;;;;;;13.80;9.53;;;;;;;;;;5033305;28;20217;-66
2022/05/02 07:11:44;;;;;;;13.43;9.90;;;;;;;;;;5033552;28;20179;-66
2022/05/02 07:14:14;;;;;;;11.30;9.13;;;;;;;;;;5016342;28;20186;-65
2022/05/02 07:16:44;;;;;;;11.17;8.73;;;;;;;;;;5040548;28;20171;-66
2022/05/02 07:19:13;;;;;;;11.10;8.83;;;;;;;;;;5022115;28;20261;-65
2022/05/02 07:21:56;;;;;;;11.97;8.97;;;;;;;;;;5039820;28;20210;-66
2022/05/02 07:24:28;;;;;;;12.30;8.57;;;;;;;;;;5022028;28;20183;-66
2022/05/02 07:26:57;;;;;;;9.53;8.33;;;;;;;;;;5022025;28;20665;-66
2022/05/02 07:29:25;;;;;;;9.40;8.10;;;;;;;;;;5039624;28;20265;-66
2022/05/02 07:31:51;;;;;;;10.80;8.27;;;;;;;;;;5039874;28;20178;-66
2022/05/02 07:34:18;;;;;;;10.97;8.30;;;;;;;;;;5039833;28;20552;-66
2022/05/02 07:36:49;;;;;;;12.93;7.53;;;;;;;;;;5022018;28;20206;-67
2022/05/02 07:39:16;;;;;;;11.57;7.90;;;;;;;;;;5040074;28;20205;-66
2022/05/02 07:41:43;;;;;;;11.40;7.60;;;;;;;;;;5039547;28;20713;-66
2022/05/02 07:44:12;;;;;;;7.60;6.80;;;;;;;;;;5021808;28;20240;-67
2022/05/02 07:46:38;;;;;;;13.13;7.90;;;;;;;;;;5021703;28;20194;-66
2022/05/02 07:49:05;;;;;;;10.90;7.70;;;;;;;;;;5039373;28;20218;-66
2022/05/02 07:51:31;;;;;;;10.33;7.40;;;;;;;;;;5021733;28;20225;-66
2022/05/02 07:53:58;;;;;;;8.57;7.53;;;;;;;;;;5039731;28;20305;-67
2022/05/02 07:56:26;;;;;;;8.80;7.03;;;;;;;;;;5039527;28;20547;-66
2022/05/02 07:58:56;;;;;;;8.27;6.67;;;;;;;;;;5039188;28;20211;-66
2022/05/02 08:01:23;;;;;;;8.77;7.10;;;;;;;;;;5039288;28;20175;-66
2022/05/02 08:03:49;;;;;;;9.40;7.20;;;;;;;;;;5039334;28;20720;-66
2022/05/02 08:06:21;;;;;;;8.77;7.00;;;;;;;;;;5039402;28;20182;-66
2022/05/02 08:09:07;;;;;;;13.60;8.17;;;;;;;;;;5039480;28;20230;-66
2022/05/02 08:11:51;;;;;;;9.70;7.60;;;;;;;;;;5038840;28;20206;-66
2022/05/02 08:14:22;;;;;;;9.70;7.60;;;;;;;;;;5021388;28;20556;-66
2022/05/02 08:17:07;;;;;;;10.97;7.57;;;;;;;;;;5039876;28;20266;-66
2022/05/02 08:19:39;;;;;;;8.30;7.40;;;;;;;;;;5021228;28;20580;-66
2022/05/02 08:27:51;;;;;;;10.47;7.57;;;;;;;;;;5034961;28;20285;-66
2022/05/02 08:30:24;;;;;;;11.10;7.93;;;;;;;;;;5036083;28;20158;-66
2022/05/02 08:33:02;;;;;;;8.90;7.27;;;;;;;;;;5035911;28;20181;-67
2022/05/02 08:35:44;;;;;;;11.27;7.00;;;;;;;;;;5018063;28;20183;-66
2022/05/02 08:38:13;;;;;;;10.77;7.40;;;;;;;;;;5018039;28;20203;-66
2022/05/02 08:40:45;;;;;;;9.07;7.77;;;;;;;;;;5018029;28;20179;-66
2022/05/02 08:43:15;;;;;;;8.97;6.93;;;;;;;;;;5017917;28;20183;-66
2022/05/02 08:45:59;;;;;;;7.73;6.87;;;;;;;;;;5035900;28;20182;-66
2022/05/02 08:48:44;;;;;;;8.23;6.80;;;;;;;;;;5017738;28;20264;-66
2022/05/02 08:51:10;;;;;;;6.37;5.67;;;;;;;;;;5035544;28;20203;-66
2022/05/02 08:53:47;;;;;;;10.67;6.20;;;;;;;;;;5017860;28;20186;-66
2022/05/02 08:56:32;;;;;;;8.43;6.17;;;;;;;;;;5035470;28;20167;-66
2022/05/02 08:58:58;;;;;;;9.30;6.43;;;;;;;;;;5017500;28;20665;-66
2022/05/02 09:01:24;;;;;;;8.37;5.57;;;;;;;;;;5035385;28;20262;-66
2022/05/02 09:04:09;;;;;;;9.20;5.67;;;;;;;;;;5035704;28;20186;-66
2022/05/02 09:07:05;;;;;;;6.47;5.80;;;;;;;;;;5017657;28;20620;-66
2022/05/02 09:09:46;;;;;;;6.77;5.07;;;;;;;;;;5035458;28;20277;-66
2022/05/02 09:12:12;;;;;;;8.07;5.10;;;;;;;;;;5035733;28;20262;-66
2022/05/02 09:14:37;;;;;;;8.27;5.10;;;;;;;;;;5035534;28;20226;-66
2022/05/02 09:17:16;;;;;;;10.13;5.70;;;;;;;;;;5035593;28;20202;-66
2022/05/02 09:19:48;;;;;;;9.17;6.00;;;;;;;;;;5035333;28;20207;-66
2022/05/02 09:22:33;;;;;;;8.33;5.57;;;;;;;;;;5035091;28;20233;-66
2022/05/02 09:25:01;;;;;;;6.33;5.43;;;;;;;;;;5035414;28;20190;-66
2022/05/02 09:27:37;;;;;;;8.33;5.63;;;;;;;;;;5019215;28;20183;-67
2022/05/02 09:30:21;;;;;;;9.03;5.97;;;;;;;;;;5021470;28;20578;-66
2022/05/02 09:33:04;;;;;;;9.97;6.00;;;;;;;;;;5042442;28;20187;-67
2022/05/02 09:35:30;;;;;;;10.27;5.50;;;;;;;;;;5041237;28;20186;-67
2022/05/02 09:37:57;;;;;;;8.30;5.93;;;;;;;;;;5034998;28;20179;-66
2022/05/02 09:40:33;;;;;;;6.93;4.77;;;;;;;;;;5017453;28;20187;-66
2022/05/02 09:43:18;;;;;;;11.10;6.13;;;;;;;;;;5034765;28;20641;-66
2022/05/02 09:51:56;;;;;;;9.23;6.33;;;;;;;;;;5035314;28;20167;-66
2022/05/02 09:57:30;;;;;;;10.60;6.00;;;;;;;;;;5034730;28;20216;-67
2022/05/02 10:02:48;;;;;;;6.33;5.67;;;;;;;;;;5034496;28;20174;-66
2022/05/02 10:05:37;;;;;;;6.90;5.63;;;;;;;;;;5034375;28;20182;-66
2022/05/02 10:08:03;;;;;;;8.30;6.00;;;;;;;;;;5006269;28;20364;-67
2022/05/02 10:10:39;;;;;;;6.77;6.07;;;;;;;;;;5034291;28;20232;-66
2022/05/02 10:13:24;;;;;;;6.83;6.07;;;;;;;;;;5016616;28;20261;-66
2022/05/02 10:16:08;;;;;;;11.60;6.00;;;;;;;;;;5035926;28;20236;-67
2022/05/02 10:19:05;;;;;;;9.40;6.73;;;;;;;;;;5033942;28;20261;-66
2022/05/02 10:21:53;;;;;;;8.50;6.17;;;;;;;;;;5034613;28;20250;-66
2022/05/02 10:24:37;;;;;;;8.23;6.87;;;;;;;;;;5034175;28;20526;-66
2022/05/02 10:27:14;;;;;;;9.53;6.57;;;;;;;;;;5034248;28;20210;-67
2022/05/02 10:29:46;;;;;;;8.57;6.57;;;;;;;;;;5034083;28;20211;-67
2022/05/02 10:32:31;;;;;;;9.77;7.10;;;;;;;;;;5033920;28;20620;-66
2022/05/02 10:34:59;;;;;;;11.63;7.07;;;;;;;;;;5033937;28;20179;-67
2022/05/02 10:37:31;;;;;;;6.77;6.07;;;;;;;;;;5016308;28;20653;-66
2022/05/02 10:40:01;;;;;;;8.83;6.77;;;;;;;;;;5016295;28;20211;-66
2022/05/02 10:42:30;;;;;;;14.27;7.10;;;;;;;;;;5033940;28;20638;-66
2022/05/02 10:44:57;;;;;;;7.63;6.30;;;;;;;;;;5016206;28;20625;-66
2022/05/02 10:47:27;;;;;;;8.27;6.73;;;;;;;;;;5016129;28;20277;-66
2022/05/02 10:49:53;;;;;;;8.33;6.63;;;;;;;;;;5032674;28;20211;-66
2022/05/02 10:52:35;;;;;;;9.70;6.40;;;;;;;;;;5015840;28;20264;-66
2022/05/02 10:55:05;;;;;;;7.70;6.20;;;;;;;;;;5033806;28;20167;-66
2022/05/02 10:57:41;;;;;;;10.50;6.83;;;;;;;;;;5015751;28;20210;-66
2022/05/02 11:00:12;;;;;;;9.47;6.37;;;;;;;;;;5033347;28;20659;-66
2022/05/02 11:02:50;;;;;;;9.37;6.40;;;;;;;;;;5033959;28;20209;-66
2022/05/02 11:05:37;;;;;;;9.83;6.80;;;;;;;;;;5033499;28;20190;-66
2022/05/02 11:08:13;;;;;;;7.37;6.60;;;;;;;;;;5002665;28;20297;-66
2022/05/02 11:10:57;;;;;;;8.70;6.70;;;;;;;;;;5015425;28;20556;-66
2022/05/02 11:13:23;;;;;;;7.80;6.60;;;;;;;;;;5033175;28;20166;-66
2022/05/02 11:16:02;;;;;;;8.87;6.73;;;;;;;;;;5033168;28;20189;-66
2022/05/02 11:21:35;;;;;;;9.50;6.87;;;;;;;;;;5034988;28;20178;-66
2022/05/02 11:24:01;;;;;;;12.20;6.87;;;;;;;;;;5017416;28;20257;-66
2022/05/02 11:26:37;;;;;;;10.33;6.67;;;;;;;;;;5017207;28;20639;-66
2022/05/02 11:29:06;;;;;;;8.03;6.67;;;;;;;;;;5016625;28;20214;-66
2022/05/02 11:31:32;;;;;;;7.97;7.10;;;;;;;;;;5033819;28;20229;-66
2022/05/02 11:34:10;;;;;;;8.33;6.23;;;;;;;;;;5033883;28;20180;-66
2022/05/02 11:36:41;;;;;;;8.30;6.77;;;;;;;;;;5015712;28;20551;-66
2022/05/02 11:39:09;;;;;;;9.35;7.40;;;;;;;;;;5033915;28;20177;-66
2022/05/02 11:41:41;;;;;;;9.70;6.63;;;;;;;;;;5033763;28;20631;-66
2022/05/02 11:44:09;;;;;;;11.07;7.63;;;;;;;;;;5033441;28;20229;-66
2022/05/02 11:46:39;;;;;;;7.57;6.37;;;;;;;;;;5015581;28;20550;-66
2022/05/02 11:49:16;;;;;;;8.30;6.60;;;;;;;;;;5015309;28;20219;-66
2022/05/02 11:51:43;;;;;;;8.33;6.43;;;;;;;;;;5033524;28;20174;-66
2022/05/02 11:54:29;;;;;;;7.97;6.50;;;;;;;;;;5015447;28;20252;-66
2022/05/02 11:57:00;;;;;;;8.67;7.37;;;;;;;;;;5033943;28;20179;-66
2022/05/02 11:59:32;;;;;;;8.77;6.50;;;;;;;;;;5033336;28;20653;-67
2022/05/02 12:02:03;;;;;;;5.90;4.90;;;;;;;;;;5037970;28;20191;-66
2022/05/02 12:04:32;;;;;;;9.67;6.60;;;;;;;;;;5038570;28;20163;-66
2022/05/02 12:07:02;;;;;;;9.47;7.20;;;;;;;;;;5038306;28;20199;-66
2022/05/02 12:09:32;;;;;;;7.13;5.60;;;;;;;;;;5037978;28;20211;-67
2022/05/02 12:11:59;;;;;;;7.60;6.63;;;;;;;;;;5038540;28;20160;-66
2022/05/02 12:14:25;;;;;;;10.40;6.97;;;;;;;;;;5038417;28;20171;-67
2022/05/02 12:17:11;;;;;;;8.77;6.57;;;;;;;;;;5018840;28;20187;-66
2022/05/02 12:19:37;;;;;;;10.20;7.03;;;;;;;;;;5036501;28;20201;-66
2022/05/02 12:22:05;;;;;;;8.50;7.30;;;;;;;;;;5036449;28;20205;-67
2022/05/02 12:24:33;;;;;;;8.90;7.40;;;;;;;;;;5036443;28;20171;-67
2022/05/02 12:26:59;;;;;;;16.50;9.00;;;;;;;;;;5036340;28;20172;-67
2022/05/02 12:29:26;;;;;;;10.33;7.03;;;;;;;;;;5036079;28;20214;-66
2022/05/02 12:31:53;;;;;;;8.03;6.73;;;;;;;;;;5036216;28;20526;-66
2022/05/02 12:34:19;;;;;;;7.87;6.47;;;;;;;;;;5036148;28;20179;-66
2022/05/02 12:36:45;;;;;;;9.00;6.90;;;;;;;;;;5018244;28;20190;-66
2022/05/02 12:39:18;;;;;;;8.63;7.23;;;;;;;;;;5018257;28;20214;-65
2022/05/02 12:41:45;;;;;;;10.67;5.83;;;;;;;;;;5035851;28;20250;-65
2022/05/02 12:44:13;;;;;;;7.60;6.13;;;;;;;;;;5018478;28;20645;-65
2022/05/02 12:46:40;;;;;;;7.77;6.20;;;;;;;;;;5018124;28;20191;-66
2022/05/02 12:49:06;;;;;;;10.07;6.63;;;;;;;;;;5035709;28;20242;-65
2022/05/02 12:51:33;;;;;;;9.43;6.70;;;;;;;;;;5035654;28;20647;-66
2022/05/02 12:54:10;;;;;;;8.57;6.13;;;;;;;;;;5035537;28;20254;-65
2022/05/02 13:00:30;;;;;;;7.87;5.97;;;;;;;;;;5035675;28;20263;-65
2022/05/02 13:02:30;;;;;;;6.90;5.97;;;;;;;;;;5035438;28;20193;-66
2022/05/02 13:04:57;;;;;;;7.47;5.47;;;;;;;;;;5035476;28;20197;-66
2022/05/02 13:07:25;;;;;;;6.57;5.43;;;;;;;;;;5017549;28;20310;-65
2022/05/02 13:09:53;;;;;;;8.23;6.43;;;;;;;;;;5017477;28;20211;-65
2022/05/02 13:12:22;;;;;;;8.33;6.63;;;;;;;;;;5034633;28;20599;-66
2022/05/02 13:14:49;;;;;;;8.87;6.77;;;;;;;;;;5035344;28;20171;-65
2022/05/02 13:17:16;;;;;;;9.50;8.07;;;;;;;;;;5017480;28;20190;-65
2022/05/02 13:19:43;;;;;;;7.67;6.50;;;;;;;;;;5035235;28;20365;-65
2022/05/02 13:22:09;;;;;;;8.93;6.53;;;;;;;;;;5035033;28;20229;-65
2022/05/02 13:24:37;;;;;;;7.97;6.27;;;;;;;;;;5034877;28;20191;-66
2022/05/02 13:27:22;;;;;;;7.83;5.93;;;;;;;;;;5035386;28;20178;-65
2022/05/02 13:29:50;;;;;;;7.00;6.30;;;;;;;;;;5034856;28;20810;-65
2022/05/02 13:32:22;;;;;;;7.00;5.70;;;;;;;;;;5017221;28;20526;-65
2022/05/02 13:35:09;;;;;;;9.60;7.47;;;;;;;;;;5035045;28;20194;-65
2022/05/02 13:37:41;;;;;;;8.97;8.07;;;;;;;;;;5017031;28;20652;-66
2022/05/02 13:40:08;;;;;;;7.10;5.37;;;;;;;;;;5034732;28;20190;-66
2022/05/02 13:42:57;;;;;;;6.80;6.10;;;;;;;;;;5017022;28;20187;-66
2022/05/02 13:45:31;;;;;;;10.90;8.80;;;;;;;;;;5016879;28;20179;-66
2022/05/02 13:47:57;;;;;;;7.33;5.80;;;;;;;;;;5034592;28;20271;-66
2022/05/02 13:50:26;;;;;;;6.90;6.13;;;;;;;;;;5016959;28;20278;-66
2022/05/02 13:53:11;;;;;;;6.90;6.20;;;;;;;;;;5034535;28;20182;-67
2022/05/02 13:55:47;;;;;;;8.47;5.73;;;;;;;;;;5034506;28;20178;-66
2022/05/02 13:58:26;;;;;;;7.53;5.73;;;;;;;;;;5034354;28;20222;-66
2022/05/02 14:03:55;;;;;;;6.77;6.07;;;;;;;;;;5034775;28;20176;-66
2022/05/02 14:06:24;;;;;;;7.40;5.83;;;;;;;;;;5034293;28;20623;-69
2022/05/02 14:08:51;;;;;;;7.83;6.97;;;;;;;;;;5016593;28;20218;-66
2022/05/02 14:11:18;;;;;;;6.70;5.50;;;;;;;;;;5034123;28;20661;-66
2022/05/02 14:13:48;;;;;;;7.07;5.77;;;;;;;;;;5016403;28;20183;-65
2022/05/02 14:16:15;;;;;;;6.60;5.63;;;;;;;;;;5016513;28;20181;-66
2022/05/02 14:18:51;;;;;;;6.57;5.97;;;;;;;;;;5016110;28;20207;-66
2022/05/02 14:21:21;;;;;;;7.27;6.50;;;;;;;;;;5033815;28;20609;-65
2022/05/02 14:23:47;;;;;;;6.50;5.93;;;;;;;;;;5033609;28;20190;-66
2022/05/02 14:26:13;;;;;;;6.67;5.90;;;;;;;;;;5033870;28;20612;-66
2022/05/02 14:28:44;;;;;;;6.93;6.23;;;;;;;;;;5016509;28;20302;-65
2022/05/02 14:31:10;;;;;;;8.33;5.47;;;;;;;;;;5034114;28;20693;-66
2022/05/02 14:33:38;;;;;;;5.40;4.90;;;;;;;;;;5033750;28;20551;-65
2022/05/02 14:36:05;;;;;;;8.03;5.87;;;;;;;;;;5033691;28;20199;-66
2022/05/02 14:38:31;;;;;;;6.40;5.77;;;;;;;;;;5033761;28;20226;-65
2022/05/02 14:40:58;;;;;;;6.30;5.43;;;;;;;;;;5033773;28;20179;-65
2022/05/02 14:43:25;;;;;;;6.77;6.07;;;;;;;;;;5033892;28;20590;-65
2022/05/02 14:45:51;;;;;;;5.93;5.33;;;;;;;;;;5033866;28;20202;-65
2022/05/02 14:48:18;;;;;;;8.37;6.50;;;;;;;;;;5033489;28;20234;-65
2022/05/02 14:50:46;;;;;;;7.10;6.20;;;;;;;;;;5033578;28;20167;-65
2022/05/02 14:53:13;;;;;;;7.60;6.17;;;;;;;;;;5033701;28;20179;-65
2022/05/02 14:55:44;;;;;;;6.43;5.77;;;;;;;;;;5033523;28;20186;-65
2022/05/02 14:58:12;;;;;;;6.20;5.60;;;;;;;;;;5033644;28;20203;-66
2022/05/02 15:00:42;;;;;;;7.83;6.00;;;;;;;;;;5033976;28;20612;-65
2022/05/02 15:03:13;;;;;;;7.67;5.93;;;;;;;;;;5033697;28;20269;-65
2022/05/02 15:05:40;;;;;;;8.87;6.57;;;;;;;;;;5033865;28;20186;-65
2022/05/02 15:08:21;;;;;;;7.00;5.97;;;;;;;;;;5037469;28;20234;-65
2022/05/02 15:11:06;;;;;;;8.03;5.93;;;;;;;;;;5038334;28;20179;-66
2022/05/02 15:13:59;;;;;;;8.20;6.53;;;;;;;;;;5023349;28;20183;-66
2022/05/02 15:16:28;;;;;;;7.63;5.80;;;;;;;;;;5015312;28;20565;-65
2022/05/02 15:22:11;;;;;;;8.40;7.30;;;;;;;;;;5033709;28;20048;-65
2022/05/02 15:24:57;;;;;;;8.53;7.03;;;;;;;;;;5015677;28;20571;-65
2022/05/02 15:38:48;;;;;;;6.80;5.97;;;;;;;;;;5037869;28;20628;-66
2022/05/02 15:41:14;;;;;;;8.97;6.87;;;;;;;;;;5019327;28;20182;-66
2022/05/02 15:43:40;;;;;;;8.00;6.83;;;;;;;;;;5036983;28;20549;-66
2022/05/02 15:46:13;;;;;;;6.70;6.00;;;;;;;;;;5037046;28;20243;-66